sensor_id;sensor_type;location;lat;lon;timestamp;P1;durP1;ratioP1;P2;durP2;ratioP2
13872;SDS011;7006;51.494;11.964;2023-04-15T00:02:21;12.37;;;9.37;;
13872;SDS011;7006;51.494;11.964;2023-04-15T00:04:49;10.77;;;8.47;;
13872;SDS011;7006;51.494;11.964;2023-04-15T00:07:17;13.33;;;8.73;;
13872;SDS011;7006;51.494;11.964;2023-04-15T00:09:48;14.13;;;10.70;;
13872;SDS011;7006;51.494;11.964;2023-04-15T00:12:19;12.80;;;9.93;;
13872;SDS011;7006;51.494;11.964;2023-04-15T00:14:47;12.13;;;10.00;;
13872;SDS011;7006;51.494;11.964;2023-04-15T00:17:16;12.90;;;10.53;;
13872;SDS011;7006;51.494;11.964;2023-04-15T00:19:44;14.50;;;11.53;;
13872;SDS011;7006;51.494;11.964;2023-04-15T00:22:13;15.00;;;10.30;;
13872;SDS011;7006;51.494;11.964;2023-04-15T00:24:42;13.90;;;11.40;;
13872;SDS011;7006;51.494;11.964;2023-04-15T00:27:13;16.87;;;12.20;;
13872;SDS011;7006;51.494;11.964;2023-04-15T00:29:41;14.00;;;11.23;;
13872;SDS011;7006;51.494;11.964;2023-04-15T00:32:09;14.47;;;11.43;;
13872;SDS011;7006;51.494;11.964;2023-04-15T00:34:38;16.53;;;12.90;;
13872;SDS011;7006;51.494;11.964;2023-04-15T00:37:07;16.13;;;12.37;;
13872;SDS011;7006;51.494;11.964;2023-04-15T00:39:36;15.73;;;12.10;;
13872;SDS011;7006;51.494;11.964;2023-04-15T00:42:05;16.30;;;12.20;;
13872;SDS011;7006;51.494;11.964;2023-04-15T00:44:36;14.03;;;10.90;;
13872;SDS011;7006;51.494;11.964;2023-04-15T00:47:05;14.87;;;10.67;;
13872;SDS011;7006;51.494;11.964;2023-04-15T00:49:33;16.67;;;11.80;;
13872;SDS011;7006;51.494;11.964;2023-04-15T00:52:02;16.70;;;11.73;;
13872;SDS011;7006;51.494;11.964;2023-04-15T00:54:30;17.13;;;11.67;;
13872;SDS011;7006;51.494;11.964;2023-04-15T00:56:59;17.77;;;11.90;;
13872;SDS011;7006;51.494;11.964;2023-04-15T00:59:27;19.67;;;13.63;;
13872;SDS011;7006;51.494;11.964;2023-04-15T01:01:58;20.83;;;13.40;;
13872;SDS011;7006;51.494;11.964;2023-04-15T01:04:27;17.27;;;12.50;;
13872;SDS011;7006;51.494;11.964;2023-04-15T01:06:56;17.90;;;12.93;;
13872;SDS011;7006;51.494;11.964;2023-04-15T01:09:24;21.47;;;15.00;;
13872;SDS011;7006;51.494;11.964;2023-04-15T01:11:53;21.60;;;15.40;;
13872;SDS011;7006;51.494;11.964;2023-04-15T01:14:21;20.50;;;15.37;;
13872;SDS011;7006;51.494;11.964;2023-04-15T01:16:51;21.17;;;15.87;;
13872;SDS011;7006;51.494;11.964;2023-04-15T01:19:22;19.53;;;14.20;;
13872;SDS011;7006;51.494;11.964;2023-04-15T01:21:51;16.77;;;13.90;;
13872;SDS011;7006;51.494;11.964;2023-04-15T01:24:20;21.23;;;14.70;;
13872;SDS011;7006;51.494;11.964;2023-04-15T01:26:52;17.43;;;13.50;;
13872;SDS011;7006;51.494;11.964;2023-04-15T01:29:20;16.67;;;12.90;;
13872;SDS011;7006;51.494;11.964;2023-04-15T01:31:49;17.07;;;12.50;;
13872;SDS011;7006;51.494;11.964;2023-04-15T01:34:19;18.83;;;14.03;;
13872;SDS011;7006;51.494;11.964;2023-04-15T01:36:47;18.20;;;14.17;;
13872;SDS011;7006;51.494;11.964;2023-04-15T01:39:16;18.93;;;13.77;;
13872;SDS011;7006;51.494;11.964;2023-04-15T01:41:44;19.83;;;14.10;;
13872;SDS011;7006;51.494;11.964;2023-04-15T01:44:15;18.80;;;12.90;;
13872;SDS011;7006;51.494;11.964;2023-04-15T01:46:44;18.53;;;13.67;;
13872;SDS011;7006;51.494;11.964;2023-04-15T01:49:12;15.27;;;12.07;;
13872;SDS011;7006;51.494;11.964;2023-04-15T01:51:41;15.87;;;11.40;;
13872;SDS011;7006;51.494;11.964;2023-04-15T01:54:09;15.10;;;10.80;;
13872;SDS011;7006;51.494;11.964;2023-04-15T01:56:38;15.20;;;11.17;;
13872;SDS011;7006;51.494;11.964;2023-04-15T01:59:06;14.30;;;10.43;;
13872;SDS011;7006;51.494;11.964;2023-04-15T02:01:37;14.03;;;9.77;;
13872;SDS011;7006;51.494;11.964;2023-04-15T02:04:06;12.00;;;9.80;;
13872;SDS011;7006;51.494;11.964;2023-04-15T02:06:40;13.03;;;10.07;;
13872;SDS011;7006;51.494;11.964;2023-04-15T02:09:09;11.40;;;8.73;;
13872;SDS011;7006;51.494;11.964;2023-04-15T02:11:37;12.63;;;9.13;;
13872;SDS011;7006;51.494;11.964;2023-04-15T02:14:06;15.70;;;9.73;;
13872;SDS011;7006;51.494;11.964;2023-04-15T02:16:37;12.93;;;9.90;;
13872;SDS011;7006;51.494;11.964;2023-04-15T02:19:05;12.67;;;9.73;;
13872;SDS011;7006;51.494;11.964;2023-04-15T02:21:34;13.50;;;10.40;;
13872;SDS011;7006;51.494;11.964;2023-04-15T02:24:02;14.40;;;10.27;;
13872;SDS011;7006;51.494;11.964;2023-04-15T02:26:31;12.90;;;10.37;;
13872;SDS011;7006;51.494;11.964;2023-04-15T02:28:59;13.43;;;9.30;;
13872;SDS011;7006;51.494;11.964;2023-04-15T02:31:28;11.60;;;9.23;;
13872;SDS011;7006;51.494;11.964;2023-04-15T02:34:03;13.20;;;9.60;;
13872;SDS011;7006;51.494;11.964;2023-04-15T02:36:32;11.10;;;8.37;;
13872;SDS011;7006;51.494;11.964;2023-04-15T02:39:00;9.93;;;7.97;;
13872;SDS011;7006;51.494;11.964;2023-04-15T02:41:29;10.97;;;8.03;;
13872;SDS011;7006;51.494;11.964;2023-04-15T02:43:57;10.73;;;7.40;;
13872;SDS011;7006;51.494;11.964;2023-04-15T02:46:25;10.93;;;8.33;;
13872;SDS011;7006;51.494;11.964;2023-04-15T02:48:54;10.87;;;7.70;;
13872;SDS011;7006;51.494;11.964;2023-04-15T02:51:29;10.53;;;7.93;;
13872;SDS011;7006;51.494;11.964;2023-04-15T02:53:57;11.13;;;7.40;;
13872;SDS011;7006;51.494;11.964;2023-04-15T02:56:26;11.57;;;8.63;;
13872;SDS011;7006;51.494;11.964;2023-04-15T02:58:55;11.20;;;7.50;;
13872;SDS011;7006;51.494;11.964;2023-04-15T03:01:23;9.23;;;7.20;;
13872;SDS011;7006;51.494;11.964;2023-04-15T03:03:52;10.40;;;7.00;;
13872;SDS011;7006;51.494;11.964;2023-04-15T03:06:20;9.53;;;7.50;;
13872;SDS011;7006;51.494;11.964;2023-04-15T03:08:51;11.33;;;7.73;;
13872;SDS011;7006;51.494;11.964;2023-04-15T03:11:21;9.90;;;6.90;;
13872;SDS011;7006;51.494;11.964;2023-04-15T03:13:50;10.50;;;7.77;;
13872;SDS011;7006;51.494;11.964;2023-04-15T03:16:18;10.77;;;8.10;;
13872;SDS011;7006;51.494;11.964;2023-04-15T03:18:47;9.77;;;7.53;;
13872;SDS011;7006;51.494;11.964;2023-04-15T03:21:15;9.43;;;7.03;;
13872;SDS011;7006;51.494;11.964;2023-04-15T03:23:44;10.00;;;7.47;;
13872;SDS011;7006;51.494;11.964;2023-04-15T03:26:25;9.60;;;7.33;;
13872;SDS011;7006;51.494;11.964;2023-04-15T03:28:54;9.97;;;7.67;;
13872;SDS011;7006;51.494;11.964;2023-04-15T03:31:23;10.27;;;7.17;;
13872;SDS011;7006;51.494;11.964;2023-04-15T03:33:52;11.37;;;8.60;;
13872;SDS011;7006;51.494;11.964;2023-04-15T03:36:20;9.93;;;6.90;;
13872;SDS011;7006;51.494;11.964;2023-04-15T03:38:48;11.10;;;7.60;;
13872;SDS011;7006;51.494;11.964;2023-04-15T03:41:17;8.90;;;6.73;;
13872;SDS011;7006;51.494;11.964;2023-04-15T03:43:48;9.37;;;6.83;;
13872;SDS011;7006;51.494;11.964;2023-04-15T03:46:16;11.70;;;7.80;;
13872;SDS011;7006;51.494;11.964;2023-04-15T03:48:45;9.20;;;7.00;;
13872;SDS011;7006;51.494;11.964;2023-04-15T03:51:14;9.30;;;6.83;;
13872;SDS011;7006;51.494;11.964;2023-04-15T03:53:42;10.87;;;7.40;;
13872;SDS011;7006;51.494;11.964;2023-04-15T03:56:10;9.77;;;6.93;;
13872;SDS011;7006;51.494;11.964;2023-04-15T03:58:39;12.30;;;7.17;;
13872;SDS011;7006;51.494;11.964;2023-04-15T04:01:10;9.83;;;6.97;;
13872;SDS011;7006;51.494;11.964;2023-04-15T04:03:39;9.77;;;7.43;;
13872;SDS011;7006;51.494;11.964;2023-04-15T04:06:07;10.53;;;7.50;;
13872;SDS011;7006;51.494;11.964;2023-04-15T04:08:36;9.27;;;7.00;;
13872;SDS011;7006;51.494;11.964;2023-04-15T04:11:05;10.93;;;7.63;;
13872;SDS011;7006;51.494;11.964;2023-04-15T04:13:33;10.47;;;6.97;;
13872;SDS011;7006;51.494;11.964;2023-04-15T04:16:02;12.47;;;7.00;;
13872;SDS011;7006;51.494;11.964;2023-04-15T04:18:33;10.60;;;7.63;;
13872;SDS011;7006;51.494;11.964;2023-04-15T04:21:02;11.80;;;7.87;;
13872;SDS011;7006;51.494;11.964;2023-04-15T04:23:30;10.30;;;7.60;;
13872;SDS011;7006;51.494;11.964;2023-04-15T04:25:59;13.30;;;8.70;;
13872;SDS011;7006;51.494;11.964;2023-04-15T04:28:28;12.67;;;8.90;;
13872;SDS011;7006;51.494;11.964;2023-04-15T04:30:56;13.30;;;9.43;;
13872;SDS011;7006;51.494;11.964;2023-04-15T04:33:25;11.90;;;9.10;;
13872;SDS011;7006;51.494;11.964;2023-04-15T04:35:56;14.53;;;9.87;;
13872;SDS011;7006;51.494;11.964;2023-04-15T04:38:24;14.70;;;10.47;;
13872;SDS011;7006;51.494;11.964;2023-04-15T04:40:53;15.63;;;10.47;;
13872;SDS011;7006;51.494;11.964;2023-04-15T04:43:21;14.47;;;10.13;;
13872;SDS011;7006;51.494;11.964;2023-04-15T04:45:50;16.97;;;11.30;;
13872;SDS011;7006;51.494;11.964;2023-04-15T04:48:18;15.40;;;10.50;;
13872;SDS011;7006;51.494;11.964;2023-04-15T04:50:47;16.73;;;11.43;;
13872;SDS011;7006;51.494;11.964;2023-04-15T04:53:18;14.27;;;10.10;;
13872;SDS011;7006;51.494;11.964;2023-04-15T04:55:46;16.60;;;10.80;;
13872;SDS011;7006;51.494;11.964;2023-04-15T04:58:15;14.07;;;10.43;;
13872;SDS011;7006;51.494;11.964;2023-04-15T05:00:43;16.43;;;11.37;;
13872;SDS011;7006;51.494;11.964;2023-04-15T05:03:12;16.00;;;11.20;;
13872;SDS011;7006;51.494;11.964;2023-04-15T05:05:40;15.90;;;11.23;;
13872;SDS011;7006;51.494;11.964;2023-04-15T05:08:08;13.73;;;9.67;;
13872;SDS011;7006;51.494;11.964;2023-04-15T05:10:39;13.57;;;9.63;;
13872;SDS011;7006;51.494;11.964;2023-04-15T05:13:08;12.43;;;9.30;;
13872;SDS011;7006;51.494;11.964;2023-04-15T05:15:36;16.03;;;10.70;;
13872;SDS011;7006;51.494;11.964;2023-04-15T05:18:07;13.13;;;9.30;;
13872;SDS011;7006;51.494;11.964;2023-04-15T05:20:35;14.00;;;9.87;;
13872;SDS011;7006;51.494;11.964;2023-04-15T05:23:04;12.70;;;9.33;;
13872;SDS011;7006;51.494;11.964;2023-04-15T05:25:32;14.23;;;9.87;;
13872;SDS011;7006;51.494;11.964;2023-04-15T05:28:03;14.43;;;9.97;;
13872;SDS011;7006;51.494;11.964;2023-04-15T05:30:32;14.07;;;10.00;;
13872;SDS011;7006;51.494;11.964;2023-04-15T05:33:00;15.43;;;10.10;;
13872;SDS011;7006;51.494;11.964;2023-04-15T05:35:29;15.30;;;10.73;;
13872;SDS011;7006;51.494;11.964;2023-04-15T05:37:57;12.97;;;9.57;;
13872;SDS011;7006;51.494;11.964;2023-04-15T05:40:26;17.37;;;10.27;;
13872;SDS011;7006;51.494;11.964;2023-04-15T05:42:54;15.33;;;10.90;;
13872;SDS011;7006;51.494;11.964;2023-04-15T05:45:25;13.57;;;9.30;;
13872;SDS011;7006;51.494;11.964;2023-04-15T05:47:54;13.43;;;9.53;;
13872;SDS011;7006;51.494;11.964;2023-04-15T05:50:22;13.60;;;9.23;;
13872;SDS011;7006;51.494;11.964;2023-04-15T05:52:50;13.47;;;9.33;;
13872;SDS011;7006;51.494;11.964;2023-04-15T05:55:20;12.43;;;8.43;;
13872;SDS011;7006;51.494;11.964;2023-04-15T05:57:49;13.10;;;9.10;;
13872;SDS011;7006;51.494;11.964;2023-04-15T06:00:17;11.90;;;8.47;;
13872;SDS011;7006;51.494;11.964;2023-04-15T06:02:49;10.17;;;7.97;;
13872;SDS011;7006;51.494;11.964;2023-04-15T06:05:17;11.10;;;7.93;;
13872;SDS011;7006;51.494;11.964;2023-04-15T06:07:46;12.30;;;8.40;;
13872;SDS011;7006;51.494;11.964;2023-04-15T06:10:14;10.80;;;7.40;;
13872;SDS011;7006;51.494;11.964;2023-04-15T06:12:43;11.47;;;7.70;;
13872;SDS011;7006;51.494;11.964;2023-04-15T06:15:11;10.13;;;7.23;;
13872;SDS011;7006;51.494;11.964;2023-04-15T06:17:41;11.53;;;7.73;;
13872;SDS011;7006;51.494;11.964;2023-04-15T06:20:12;10.97;;;7.60;;
13872;SDS011;7006;51.494;11.964;2023-04-15T06:22:40;9.70;;;7.20;;
13872;SDS011;7006;51.494;11.964;2023-04-15T06:25:09;11.50;;;8.00;;
13872;SDS011;7006;51.494;11.964;2023-04-15T06:27:37;12.73;;;9.73;;
13872;SDS011;7006;51.494;11.964;2023-04-15T06:30:06;12.97;;;8.43;;
13872;SDS011;7006;51.494;11.964;2023-04-15T06:32:36;12.17;;;8.60;;
13872;SDS011;7006;51.494;11.964;2023-04-15T06:35:04;14.67;;;9.87;;
13872;SDS011;7006;51.494;11.964;2023-04-15T06:37:38;13.87;;;10.33;;
13872;SDS011;7006;51.494;11.964;2023-04-15T06:40:07;13.50;;;9.17;;
13872;SDS011;7006;51.494;11.964;2023-04-15T06:42:36;14.57;;;10.37;;
13872;SDS011;7006;51.494;11.964;2023-04-15T06:45:06;16.43;;;10.20;;
13872;SDS011;7006;51.494;11.964;2023-04-15T06:47:36;15.60;;;11.20;;
13872;SDS011;7006;51.494;11.964;2023-04-15T06:50:05;17.10;;;10.07;;
13872;SDS011;7006;51.494;11.964;2023-04-15T06:52:34;13.57;;;9.20;;
13872;SDS011;7006;51.494;11.964;2023-04-15T06:55:08;16.07;;;10.70;;
13872;SDS011;7006;51.494;11.964;2023-04-15T06:57:37;15.67;;;11.20;;
13872;SDS011;7006;51.494;11.964;2023-04-15T07:00:16;16.77;;;11.50;;
13872;SDS011;7006;51.494;11.964;2023-04-15T07:02:46;15.37;;;11.47;;
13872;SDS011;7006;51.494;11.964;2023-04-15T07:05:15;16.83;;;11.47;;
13872;SDS011;7006;51.494;11.964;2023-04-15T07:07:44;16.10;;;11.43;;
13872;SDS011;7006;51.494;11.964;2023-04-15T07:10:16;15.00;;;10.93;;
13872;SDS011;7006;51.494;11.964;2023-04-15T07:12:45;16.63;;;11.40;;
13872;SDS011;7006;51.494;11.964;2023-04-15T07:15:15;16.67;;;11.50;;
13872;SDS011;7006;51.494;11.964;2023-04-15T07:17:44;18.63;;;12.70;;
13872;SDS011;7006;51.494;11.964;2023-04-15T07:20:12;16.07;;;11.60;;
13872;SDS011;7006;51.494;11.964;2023-04-15T07:22:40;16.13;;;12.30;;
13872;SDS011;7006;51.494;11.964;2023-04-15T07:25:09;16.50;;;11.20;;
13872;SDS011;7006;51.494;11.964;2023-04-15T07:27:40;16.73;;;11.70;;
13872;SDS011;7006;51.494;11.964;2023-04-15T07:30:09;14.33;;;10.47;;
13872;SDS011;7006;51.494;11.964;2023-04-15T07:32:39;16.10;;;11.67;;
13872;SDS011;7006;51.494;11.964;2023-04-15T07:35:07;16.30;;;12.27;;
13872;SDS011;7006;51.494;11.964;2023-04-15T07:37:36;16.80;;;11.63;;
13872;SDS011;7006;51.494;11.964;2023-04-15T07:40:06;16.10;;;11.63;;
13872;SDS011;7006;51.494;11.964;2023-04-15T07:42:36;16.60;;;11.73;;
13872;SDS011;7006;51.494;11.964;2023-04-15T07:45:08;16.70;;;12.70;;
13872;SDS011;7006;51.494;11.964;2023-04-15T07:47:37;20.33;;;11.90;;
13872;SDS011;7006;51.494;11.964;2023-04-15T07:50:06;15.50;;;11.23;;
13872;SDS011;7006;51.494;11.964;2023-04-15T07:52:36;17.40;;;12.30;;
13872;SDS011;7006;51.494;11.964;2023-04-15T07:55:06;17.60;;;11.33;;
13872;SDS011;7006;51.494;11.964;2023-04-15T07:57:36;15.30;;;11.20;;
13872;SDS011;7006;51.494;11.964;2023-04-15T08:00:05;15.77;;;11.50;;
13872;SDS011;7006;51.494;11.964;2023-04-15T08:02:37;17.27;;;11.10;;
13872;SDS011;7006;51.494;11.964;2023-04-15T08:05:05;15.03;;;10.60;;
13872;SDS011;7006;51.494;11.964;2023-04-15T08:07:35;14.73;;;11.80;;
13872;SDS011;7006;51.494;11.964;2023-04-15T08:10:04;18.67;;;13.50;;
13872;SDS011;7006;51.494;11.964;2023-04-15T08:12:33;21.70;;;15.00;;
13872;SDS011;7006;51.494;11.964;2023-04-15T08:15:02;16.30;;;12.33;;
13872;SDS011;7006;51.494;11.964;2023-04-15T08:17:33;16.77;;;12.73;;
13872;SDS011;7006;51.494;11.964;2023-04-15T08:20:02;18.47;;;13.10;;
13872;SDS011;7006;51.494;11.964;2023-04-15T08:22:31;15.87;;;12.70;;
13872;SDS011;7006;51.494;11.964;2023-04-15T08:25:00;17.60;;;12.13;;
13872;SDS011;7006;51.494;11.964;2023-04-15T08:27:28;15.97;;;12.23;;
13872;SDS011;7006;51.494;11.964;2023-04-15T08:29:57;20.37;;;14.30;;
13872;SDS011;7006;51.494;11.964;2023-04-15T08:32:25;18.30;;;13.67;;
13872;SDS011;7006;51.494;11.964;2023-04-15T08:34:56;17.60;;;13.30;;
13872;SDS011;7006;51.494;11.964;2023-04-15T08:37:25;19.77;;;14.20;;
13872;SDS011;7006;51.494;11.964;2023-04-15T08:39:54;21.23;;;14.90;;
13872;SDS011;7006;51.494;11.964;2023-04-15T08:42:25;20.03;;;14.60;;
13872;SDS011;7006;51.494;11.964;2023-04-15T08:44:57;24.03;;;15.60;;
13872;SDS011;7006;51.494;11.964;2023-04-15T08:47:27;21.70;;;15.20;;
13872;SDS011;7006;51.494;11.964;2023-04-15T08:50:00;22.70;;;16.00;;
13872;SDS011;7006;51.494;11.964;2023-04-15T08:52:31;23.93;;;17.17;;
13872;SDS011;7006;51.494;11.964;2023-04-15T08:54:59;26.20;;;17.60;;
13872;SDS011;7006;51.494;11.964;2023-04-15T08:57:30;23.93;;;16.70;;
13872;SDS011;7006;51.494;11.964;2023-04-15T08:59:58;31.23;;;18.20;;
13872;SDS011;7006;51.494;11.964;2023-04-15T09:02:30;29.00;;;20.63;;
13872;SDS011;7006;51.494;11.964;2023-04-15T09:05:01;28.47;;;20.00;;
13872;SDS011;7006;51.494;11.964;2023-04-15T09:07:32;27.70;;;19.70;;
13872;SDS011;7006;51.494;11.964;2023-04-15T09:10:01;33.40;;;20.87;;
13872;SDS011;7006;51.494;11.964;2023-04-15T09:12:32;32.20;;;20.30;;
13872;SDS011;7006;51.494;11.964;2023-04-15T09:15:01;34.13;;;20.73;;
13872;SDS011;7006;51.494;11.964;2023-04-15T09:17:31;29.47;;;20.00;;
13872;SDS011;7006;51.494;11.964;2023-04-15T09:20:09;32.53;;;20.90;;
13872;SDS011;7006;51.494;11.964;2023-04-15T09:22:39;30.53;;;19.67;;
13872;SDS011;7006;51.494;11.964;2023-04-15T09:27:52;30.60;;;19.97;;
13872;SDS011;7006;51.494;11.964;2023-04-15T09:30:22;31.57;;;19.80;;
13872;SDS011;7006;51.494;11.964;2023-04-15T09:32:51;34.43;;;21.00;;
13872;SDS011;7006;51.494;11.964;2023-04-15T09:35:23;34.17;;;21.03;;
13872;SDS011;7006;51.494;11.964;2023-04-15T09:37:53;37.50;;;22.20;;
13872;SDS011;7006;51.494;11.964;2023-04-15T09:40:30;41.37;;;24.70;;
13872;SDS011;7006;51.494;11.964;2023-04-15T09:42:59;42.20;;;25.90;;
13872;SDS011;7006;51.494;11.964;2023-04-15T09:45:31;44.53;;;25.27;;
13872;SDS011;7006;51.494;11.964;2023-04-15T09:48:13;46.20;;;25.10;;
13872;SDS011;7006;51.494;11.964;2023-04-15T09:50:45;43.17;;;24.87;;
13872;SDS011;7006;51.494;11.964;2023-04-15T09:53:15;51.33;;;27.70;;
13872;SDS011;7006;51.494;11.964;2023-04-15T09:55:45;54.10;;;29.57;;
13872;SDS011;7006;51.494;11.964;2023-04-15T09:58:16;50.50;;;28.23;;
13872;SDS011;7006;51.494;11.964;2023-04-15T10:00:46;47.13;;;27.50;;
13872;SDS011;7006;51.494;11.964;2023-04-15T10:03:17;55.30;;;29.20;;
13872;SDS011;7006;51.494;11.964;2023-04-15T10:05:49;55.97;;;29.50;;
13872;SDS011;7006;51.494;11.964;2023-04-15T10:08:19;54.30;;;30.13;;
13872;SDS011;7006;51.494;11.964;2023-04-15T10:10:49;63.33;;;32.40;;
13872;SDS011;7006;51.494;11.964;2023-04-15T10:13:18;55.17;;;32.10;;
13872;SDS011;7006;51.494;11.964;2023-04-15T10:15:49;66.33;;;35.23;;
13872;SDS011;7006;51.494;11.964;2023-04-15T10:18:19;64.50;;;34.50;;
13872;SDS011;7006;51.494;11.964;2023-04-15T10:20:51;56.57;;;32.97;;
13872;SDS011;7006;51.494;11.964;2023-04-15T10:23:20;63.13;;;40.00;;
13872;SDS011;7006;51.494;11.964;2023-04-15T10:25:50;77.77;;;36.63;;
13872;SDS011;7006;51.494;11.964;2023-04-15T10:28:20;68.97;;;38.97;;
13872;SDS011;7006;51.494;11.964;2023-04-15T10:30:49;67.50;;;37.07;;
13872;SDS011;7006;51.494;11.964;2023-04-15T10:33:19;69.03;;;38.20;;
13872;SDS011;7006;51.494;11.964;2023-04-15T10:35:52;70.63;;;40.33;;
13872;SDS011;7006;51.494;11.964;2023-04-15T10:38:31;81.20;;;44.50;;
13872;SDS011;7006;51.494;11.964;2023-04-15T10:41:13;69.70;;;38.13;;
13872;SDS011;7006;51.494;11.964;2023-04-15T10:43:47;73.70;;;40.50;;
13872;SDS011;7006;51.494;11.964;2023-04-15T10:46:23;76.53;;;39.60;;
13872;SDS011;7006;51.494;11.964;2023-04-15T10:49:06;76.37;;;40.67;;
13872;SDS011;7006;51.494;11.964;2023-04-15T10:51:38;74.00;;;39.90;;
13872;SDS011;7006;51.494;11.964;2023-04-15T10:54:11;79.33;;;39.87;;
13872;SDS011;7006;51.494;11.964;2023-04-15T10:56:41;70.63;;;40.40;;
13872;SDS011;7006;51.494;11.964;2023-04-15T10:59:10;73.70;;;40.57;;
13872;SDS011;7006;51.494;11.964;2023-04-15T11:01:52;80.07;;;45.43;;
13872;SDS011;7006;51.494;11.964;2023-04-15T11:13:27;75.20;;;42.97;;
13872;SDS011;7006;51.494;11.964;2023-04-15T11:15:57;83.43;;;43.97;;
13872;SDS011;7006;51.494;11.964;2023-04-15T11:18:30;83.20;;;45.10;;
13872;SDS011;7006;51.494;11.964;2023-04-15T11:21:03;81.43;;;43.40;;
13872;SDS011;7006;51.494;11.964;2023-04-15T11:23:39;86.37;;;46.57;;
13872;SDS011;7006;51.494;11.964;2023-04-15T11:26:10;79.33;;;42.77;;
13872;SDS011;7006;51.494;11.964;2023-04-15T11:28:39;70.70;;;42.37;;
13872;SDS011;7006;51.494;11.964;2023-04-15T11:31:09;68.10;;;41.90;;
13872;SDS011;7006;51.494;11.964;2023-04-15T11:33:44;73.03;;;43.47;;
13872;SDS011;7006;51.494;11.964;2023-04-15T11:36:13;78.53;;;43.40;;
13872;SDS011;7006;51.494;11.964;2023-04-15T11:38:45;67.97;;;42.20;;
13872;SDS011;7006;51.494;11.964;2023-04-15T11:41:14;80.83;;;44.77;;
13872;SDS011;7006;51.494;11.964;2023-04-15T11:43:42;66.23;;;41.17;;
13872;SDS011;7006;51.494;11.964;2023-04-15T11:46:11;68.50;;;42.53;;
13872;SDS011;7006;51.494;11.964;2023-04-15T11:48:41;67.67;;;41.80;;
13872;SDS011;7006;51.494;11.964;2023-04-15T11:51:11;73.40;;;42.60;;
13872;SDS011;7006;51.494;11.964;2023-04-15T11:53:41;68.37;;;42.70;;
13872;SDS011;7006;51.494;11.964;2023-04-15T11:56:18;65.57;;;41.60;;
13872;SDS011;7006;51.494;11.964;2023-04-15T11:58:47;63.10;;;40.70;;
13872;SDS011;7006;51.494;11.964;2023-04-15T12:01:16;65.27;;;39.73;;
13872;SDS011;7006;51.494;11.964;2023-04-15T12:03:44;58.97;;;39.70;;
13872;SDS011;7006;51.494;11.964;2023-04-15T12:06:14;55.50;;;36.67;;
13872;SDS011;7006;51.494;11.964;2023-04-15T12:08:47;60.20;;;39.17;;
13872;SDS011;7006;51.494;11.964;2023-04-15T12:11:30;51.97;;;36.87;;
13872;SDS011;7006;51.494;11.964;2023-04-15T12:14:02;52.70;;;38.10;;
13872;SDS011;7006;51.494;11.964;2023-04-15T12:16:32;51.00;;;36.80;;
13872;SDS011;7006;51.494;11.964;2023-04-15T12:19:04;52.13;;;35.43;;
13872;SDS011;7006;51.494;11.964;2023-04-15T12:21:34;47.93;;;34.00;;
13872;SDS011;7006;51.494;11.964;2023-04-15T12:24:04;40.07;;;33.10;;
13872;SDS011;7006;51.494;11.964;2023-04-15T12:26:37;41.60;;;31.67;;
13872;SDS011;7006;51.494;11.964;2023-04-15T12:29:10;42.83;;;32.50;;
13872;SDS011;7006;51.494;11.964;2023-04-15T12:31:50;38.77;;;31.20;;
13872;SDS011;7006;51.494;11.964;2023-04-15T12:34:25;38.07;;;31.07;;
13872;SDS011;7006;51.494;11.964;2023-04-15T12:36:54;39.53;;;31.17;;
13872;SDS011;7006;51.494;11.964;2023-04-15T12:39:23;37.30;;;29.27;;
13872;SDS011;7006;51.494;11.964;2023-04-15T12:41:55;37.03;;;29.37;;
13872;SDS011;7006;51.494;11.964;2023-04-15T12:44:23;33.90;;;26.73;;
13872;SDS011;7006;51.494;11.964;2023-04-15T12:46:52;35.27;;;28.03;;
13872;SDS011;7006;51.494;11.964;2023-04-15T12:49:20;34.23;;;27.97;;
13872;SDS011;7006;51.494;11.964;2023-04-15T12:51:50;35.30;;;25.90;;
13872;SDS011;7006;51.494;11.964;2023-04-15T12:54:19;31.67;;;25.40;;
13872;SDS011;7006;51.494;11.964;2023-04-15T12:56:49;34.67;;;26.10;;
13872;SDS011;7006;51.494;11.964;2023-04-15T12:59:20;33.53;;;26.53;;
13872;SDS011;7006;51.494;11.964;2023-04-15T13:01:49;31.00;;;24.00;;
13872;SDS011;7006;51.494;11.964;2023-04-15T13:04:18;32.07;;;25.63;;
13872;SDS011;7006;51.494;11.964;2023-04-15T13:06:47;31.73;;;24.77;;
13872;SDS011;7006;51.494;11.964;2023-04-15T13:09:16;34.00;;;27.67;;
13872;SDS011;7006;51.494;11.964;2023-04-15T13:11:44;33.23;;;24.50;;
13872;SDS011;7006;51.494;11.964;2023-04-15T13:14:13;31.67;;;24.47;;
13872;SDS011;7006;51.494;11.964;2023-04-15T13:16:44;30.00;;;24.27;;
13872;SDS011;7006;51.494;11.964;2023-04-15T13:19:12;29.03;;;23.27;;
13872;SDS011;7006;51.494;11.964;2023-04-15T13:21:41;28.57;;;23.00;;
13872;SDS011;7006;51.494;11.964;2023-04-15T13:24:09;28.47;;;21.60;;
13872;SDS011;7006;51.494;11.964;2023-04-15T13:26:37;27.63;;;23.57;;
13872;SDS011;7006;51.494;11.964;2023-04-15T13:29:06;26.47;;;22.53;;
13872;SDS011;7006;51.494;11.964;2023-04-15T13:31:35;30.30;;;23.30;;
13872;SDS011;7006;51.494;11.964;2023-04-15T13:34:06;26.37;;;21.60;;
13872;SDS011;7006;51.494;11.964;2023-04-15T13:36:35;28.00;;;22.63;;
13872;SDS011;7006;51.494;11.964;2023-04-15T13:39:03;25.70;;;20.83;;
13872;SDS011;7006;51.494;11.964;2023-04-15T13:41:32;23.87;;;21.20;;
13872;SDS011;7006;51.494;11.964;2023-04-15T13:44:01;23.03;;;18.90;;
13872;SDS011;7006;51.494;11.964;2023-04-15T13:46:30;25.23;;;20.87;;
13872;SDS011;7006;51.494;11.964;2023-04-15T13:48:58;24.00;;;19.97;;
13872;SDS011;7006;51.494;11.964;2023-04-15T13:51:29;24.13;;;20.30;;
13872;SDS011;7006;51.494;11.964;2023-04-15T13:54:00;24.83;;;20.50;;
13872;SDS011;7006;51.494;11.964;2023-04-15T13:56:28;21.03;;;18.33;;
13872;SDS011;7006;51.494;11.964;2023-04-15T13:58:56;22.80;;;19.37;;
13872;SDS011;7006;51.494;11.964;2023-04-15T14:01:26;23.30;;;20.33;;
13872;SDS011;7006;51.494;11.964;2023-04-15T14:03:54;26.60;;;21.73;;
13872;SDS011;7006;51.494;11.964;2023-04-15T14:06:23;25.53;;;21.80;;
13872;SDS011;7006;51.494;11.964;2023-04-15T14:08:54;21.63;;;19.07;;
13872;SDS011;7006;51.494;11.964;2023-04-15T14:11:23;22.03;;;17.60;;
13872;SDS011;7006;51.494;11.964;2023-04-15T14:13:51;22.77;;;18.87;;
13872;SDS011;7006;51.494;11.964;2023-04-15T14:16:19;23.57;;;20.17;;
13872;SDS011;7006;51.494;11.964;2023-04-15T14:18:48;24.23;;;20.70;;
13872;SDS011;7006;51.494;11.964;2023-04-15T14:21:16;24.97;;;20.83;;
13872;SDS011;7006;51.494;11.964;2023-04-15T14:23:45;27.10;;;22.20;;
13872;SDS011;7006;51.494;11.964;2023-04-15T14:26:16;24.30;;;20.00;;
13872;SDS011;7006;51.494;11.964;2023-04-15T14:28:44;30.27;;;23.33;;
13872;SDS011;7006;51.494;11.964;2023-04-15T14:31:13;27.83;;;22.00;;
13872;SDS011;7006;51.494;11.964;2023-04-15T14:33:41;27.80;;;23.40;;
13872;SDS011;7006;51.494;11.964;2023-04-15T14:36:10;27.23;;;23.50;;
13872;SDS011;7006;51.494;11.964;2023-04-15T14:38:38;25.23;;;22.17;;
13872;SDS011;7006;51.494;11.964;2023-04-15T14:41:07;24.27;;;20.20;;
13872;SDS011;7006;51.494;11.964;2023-04-15T14:43:38;23.43;;;20.20;;
13872;SDS011;7006;51.494;11.964;2023-04-15T14:46:07;26.37;;;21.57;;
13872;SDS011;7006;51.494;11.964;2023-04-15T14:48:36;26.53;;;21.30;;
13872;SDS011;7006;51.494;11.964;2023-04-15T14:51:04;28.27;;;22.80;;
13872;SDS011;7006;51.494;11.964;2023-04-15T14:53:33;27.47;;;21.93;;